createdAt,value
2018-08-04T02:01:26.862Z,101782.18
2018-08-04T02:04:29.993Z,101777.50
2018-08-04T02:14:22.033Z,101768.80
2018-08-04T02:17:36.324Z,101771.62
2018-08-04T02:21:06.682Z,101769.03
2018-08-04T02:40:02.992Z,101757.59
2018-08-04T02:49:12.565Z,101750.78
2018-08-04T03:02:17.662Z,101751.73
2018-08-04T03:13:42.596Z,101734.90
2018-08-04T03:19:36.079Z,101729.05
2018-08-04T03:22:25.070Z,101734.89
2018-08-04T03:25:36.613Z,101737.23
2018-08-04T03:28:08.795Z,101733.77
2018-08-04T03:30:47.432Z,101738.81
2018-08-04T03:33:22.392Z,101726.78
2018-08-04T03:39:21.369Z,101735.16
2018-08-04T03:42:15.655Z,101741.31
2018-08-04T03:44:52.429Z,101740.98
2018-08-04T03:47:44.515Z,101738.53
2018-08-04T03:50:30.960Z,101737.63
2018-08-04T03:53:13.025Z,101734.53
2018-08-04T03:55:55.790Z,101737.38
2018-08-04T03:58:39.900Z,101743.38
2018-08-04T04:01:17.612Z,101744.30
2018-08-04T04:04:04.397Z,101739.56
2018-08-04T04:06:45.668Z,101738.20
2018-08-04T04:09:36.257Z,101730.64
2018-08-04T04:12:12.709Z,101738.74
2018-08-04T04:14:53.975Z,101731.31
2018-08-04T04:18:08.122Z,101727.09
2018-08-04T04:20:43.213Z,101733.91
2018-08-04T04:23:25.139Z,101735.99
2018-08-04T04:25:57.661Z,101734.17
2018-08-04T04:28:27.830Z,101731.38
2018-08-04T04:31:01.344Z,101729.95
2018-08-04T04:33:34.999Z,101729.17
2018-08-04T04:36:07.866Z,101727.80
2018-08-04T04:38:41.764Z,101723.60
2018-08-04T04:41:16.406Z,101722.95
2018-08-04T04:43:49.001Z,101732.05
2018-08-04T04:46:20.953Z,101735.42
2018-08-04T04:48:51.292Z,101734.45
2018-08-04T04:51:21.902Z,101738.27
2018-08-04T04:53:52.688Z,101738.16
2018-08-04T04:56:25.588Z,101737.78
2018-08-04T04:59:06.873Z,101741.40
2018-08-04T05:01:55.668Z,101738.05
2018-08-04T05:04:31.614Z,101734.15
2018-08-04T05:07:10.984Z,101738.83
2018-08-04T05:09:53.126Z,101743.50
2018-08-04T05:12:28.884Z,101746.23
2018-08-04T05:15:04.353Z,101743.62
2018-08-04T05:17:45.869Z,101742.21
2018-08-04T05:20:25.484Z,101754.97
2018-08-04T05:23:09.618Z,101759.70
2018-08-04T05:29:01.168Z,101760.28
2018-08-04T05:31:58.756Z,101754.83
2018-08-04T05:34:36.035Z,101757.30
2018-08-04T05:40:15.804Z,101772.38
2018-08-04T05:43:04.598Z,101771.98
2018-08-04T05:45:35.167Z,101776.06
2018-08-04T05:48:05.710Z,101771.40
2018-08-04T05:50:37.754Z,101772.25
2018-08-04T05:53:09.538Z,101778.82
2018-08-04T05:55:41.346Z,101772.86
2018-08-04T05:58:13.224Z,101770.80
2018-08-04T06:00:47.070Z,101769.37
2018-08-04T06:03:20.928Z,101772.11
2018-08-04T06:05:54.415Z,101767.25
2018-08-04T06:08:26.247Z,101776.22
2018-08-04T06:10:56.886Z,101775.23
2018-08-04T06:13:30.497Z,101781.50
2018-08-04T06:16:27.500Z,101780.08
2018-08-04T06:19:18.650Z,101781.73
2018-08-04T06:22:02.395Z,101783.18
2018-08-04T06:24:49.149Z,101785.87
2018-08-04T06:30:27.202Z,101793.97
2018-08-04T06:33:02.983Z,101797.73
2018-08-04T06:35:37.952Z,101796.70
2018-08-04T06:38:15.731Z,101793.75
2018-08-04T06:43:37.348Z,101795.73
2018-08-04T06:46:08.634Z,101786.03
2018-08-04T06:48:38.934Z,101784.67
2018-08-04T06:52:43.551Z,101778.27
2018-08-04T06:55:14.021Z,101790.47
2018-08-04T06:57:44.367Z,101783.51
2018-08-04T07:00:14.667Z,101779.41
2018-08-04T07:03:16.257Z,101777.90
2018-08-04T07:08:50.889Z,101782.05
2018-08-04T07:19:45.430Z,101769.19
2018-08-04T07:22:37.374Z,101769.13
2018-08-04T07:40:50.439Z,101781.64
2018-08-04T07:43:42.330Z,101775.02
2018-08-04T07:46:20.515Z,101776.64
2018-08-04T07:53:37.750Z,101774.45
2018-08-04T08:04:53.743Z,101771.80
2018-08-04T08:07:27.542Z,101773.67
2018-08-04T08:09:59.618Z,101774.89
2018-08-04T08:13:13.294Z,101772.31
2018-08-04T08:15:51.777Z,101782.69
2018-08-04T08:18:26.312Z,101793.13
2018-08-04T08:21:03.537Z,101798.23
2018-08-04T08:34:54.810Z,101785.31
2018-08-04T08:37:49.588Z,101787.50
2018-08-04T08:40:35.668Z,101788.86
2018-08-04T08:43:18.918Z,101790.39
2018-08-04T08:49:15.417Z,101779.67
2018-08-04T08:52:15.713Z,101769.82
2018-08-04T08:55:02.417Z,101769.53
2018-08-04T08:57:59.494Z,101764.56
2018-08-04T09:00:44.306Z,101756.98
2018-08-04T09:03:19.872Z,101754.85
2018-08-04T09:06:09.770Z,101757.11
2018-08-04T09:13:10.157Z,101751.60
2018-08-04T09:18:17.213Z,101756.02
2018-08-04T09:29:14.638Z,101745.85
2018-08-04T09:33:00.012Z,101747.22
2018-08-04T09:35:42.125Z,101747.59
2018-08-04T09:38:25.074Z,101736.60
2018-08-04T09:41:06.583Z,101737.48
2018-08-04T09:43:39.945Z,101726.16
2018-08-04T10:08:05.185Z,101749.53
2018-08-04T10:10:45.224Z,101748.86
2018-08-04T10:19:53.654Z,101745.17
2018-08-04T10:22:32.253Z,101752.07
2018-08-04T10:25:29.866Z,101749.45
2018-08-04T10:28:13.761Z,101751.55
2018-08-04T10:33:45.364Z,101733.20
2018-08-04T10:36:18.848Z,101728.47
2018-08-04T10:39:22.188Z,101729.09
2018-08-04T10:45:22.332Z,101736.00
2018-08-04T10:48:21.183Z,101741.59
2018-08-04T11:04:21.155Z,101714.32
2018-08-04T11:07:12.384Z,101722.21
2018-08-04T11:09:47.678Z,101728.41
2018-08-04T11:15:03.784Z,101743.91
2018-08-04T11:29:22.871Z,101741.72
2018-08-04T11:31:55.369Z,101742.37
2018-08-04T11:34:33.781Z,101737.91
2018-08-04T11:37:05.781Z,101742.94
2018-08-04T11:42:48.409Z,101732.02
2018-08-04T11:45:21.108Z,101743.61
2018-08-04T11:47:58.407Z,101732.80
2018-08-04T11:50:33.405Z,101733.62
2018-08-04T11:53:09.004Z,101737.05
2018-08-04T11:55:50.994Z,101737.07
2018-08-04T11:58:42.667Z,101729.67
2018-08-04T12:01:16.891Z,101721.11
2018-08-04T12:03:49.911Z,101720.41
2018-08-04T12:10:16.653Z,101718.82
2018-08-04T12:40:36.831Z,101714.80
2018-08-04T12:59:22.731Z,101710.23
2018-08-04T13:16:11.780Z,101695.20
2018-08-04T13:52:36.662Z,101693.22
2018-08-04T14:24:56.423Z,101673.47
2018-08-04T14:38:36.011Z,101667.56
2018-08-04T16:17:29.915Z,101653.13
2018-08-04T17:00:19.111Z,101662.57
2018-08-04T17:09:22.122Z,101671.91
2018-08-04T17:13:10.504Z,101679.91
2018-08-04T17:20:44.365Z,101682.16
2018-08-04T17:30:33.127Z,101682.58
2018-08-04T17:33:15.190Z,101679.34
2018-08-04T17:44:49.988Z,101697.77
2018-08-04T17:47:30.631Z,101694.20
2018-08-04T17:50:32.377Z,101694.97
2018-08-04T17:57:03.957Z,101686.02
2018-08-04T18:12:55.355Z,101708.02
2018-08-04T18:46:08.725Z,101675.85
2018-08-04T18:48:46.829Z,101704.96
2018-08-04T18:51:19.770Z,101708.61
2018-08-04T18:57:13.905Z,101700.24
2018-08-04T19:00:49.144Z,101690.08
2018-08-04T19:16:11.397Z,101713.16
2018-08-04T19:18:50.297Z,101722.74
2018-08-04T19:25:50.535Z,101726.97
2018-08-04T19:40:01.204Z,101720.78
2018-08-04T19:50:02.785Z,101717.80
2018-08-04T19:56:35.966Z,101729.09
2018-08-04T19:59:20.463Z,101733.70
2018-08-04T20:02:31.908Z,101729.35
2018-08-04T20:05:24.469Z,101726.23
2018-08-04T20:07:56.412Z,101721.89
2018-08-04T20:10:51.784Z,101727.61
2018-08-04T20:13:33.148Z,101735.67
2018-08-04T20:27:19.116Z,101743.27
2018-08-04T20:30:06.193Z,101749.20
2018-08-04T20:39:01.614Z,101750.43
2018-08-04T20:45:07.671Z,101750.69
2018-08-04T20:48:00.753Z,101758.50
2018-08-04T20:55:59.982Z,101759.32
2018-08-04T21:02:51.935Z,101767.05
2018-08-04T21:11:58.322Z,101766.27
2018-08-04T21:14:55.024Z,101759.95
2018-08-04T21:22:14.919Z,101761.41
2018-08-04T21:28:39.866Z,101760.64
2018-08-04T21:49:32.038Z,101760.35
2018-08-04T21:52:28.125Z,101767.11
2018-08-04T21:58:25.708Z,101772.30
2018-08-04T22:08:02.625Z,101765.92
2018-08-04T22:10:36.840Z,101772.04
2018-08-04T22:13:17.279Z,101770.05
2018-08-04T22:19:02.598Z,101776.64
2018-08-04T22:22:06.856Z,101784.34
2018-08-04T22:24:47.213Z,101779.02
2018-08-04T22:30:43.197Z,101790.02
2018-08-04T22:33:36.852Z,101792.59
2018-08-04T22:36:26.793Z,101784.58
2018-08-04T22:41:50.498Z,101795.08
2018-08-04T22:44:31.054Z,101794.39
2018-08-04T22:50:08.882Z,101798.81
2018-08-04T22:52:44.364Z,101795.17
2018-08-04T22:55:22.324Z,101800.09
2018-08-04T22:58:15.047Z,101803.88
2018-08-04T23:01:00.903Z,101800.34
2018-08-04T23:03:56.512Z,101807.40
2018-08-04T23:06:29.540Z,101802.37
2018-08-04T23:09:13.533Z,101800.28
2018-08-04T23:11:50.644Z,101798.75
2018-08-04T23:14:29.301Z,101799.42
2018-08-04T23:17:08.225Z,101811.45
2018-08-04T23:19:40.277Z,101813.25
2018-08-04T23:25:01.499Z,101816.48
2018-08-04T23:27:41.016Z,101814.55
2018-08-04T23:30:18.891Z,101819.51
2018-08-04T23:32:58.555Z,101821.02
2018-08-04T23:35:34.898Z,101818.77
2018-08-04T23:38:11.218Z,101816.16
2018-08-04T23:40:52.973Z,101811.28
2018-08-04T23:43:29.805Z,101820.48
2018-08-04T23:46:15.102Z,101822.27
2018-08-04T23:48:51.796Z,101814.38
2018-08-04T23:54:15.844Z,101820.70
2018-08-04T23:56:54.975Z,101817.88
2018-08-04T23:59:56.580Z,101821.98
